Time,TemperatureF,DewpointF,PressureIn,WindDirection,WindDirectionDegrees,WindSpeedMPH,WindSpeedGustMPH,Humidity,HourlyPrecipIn,Conditions,Clouds,dailyrainin,SolarRadiationWatts/m^2,SoftwareType,DateUTC
2013-01-05 00:04:00,22.0,18.8,30.36,East,89,0.0,0.0,87,0.00,,,0.00,0,WeatherHawk,2013-01-05 08:04:00,
2013-01-05 00:09:00,21.7,19.5,30.36,East,89,0.0,0.0,91,0.00,,,0.00,0,WeatherHawk,2013-01-05 08:09:00,
2013-01-05 00:14:00,21.9,20.2,30.36,East,89,0.0,0.0,93,0.00,,,0.00,0,WeatherHawk,2013-01-05 08:14:00,
2013-01-05 00:19:00,22.0,20.8,30.36,East,89,0.0,0.0,95,0.00,,,0.00,0,WeatherHawk,2013-01-05 08:19:00,
2013-01-05 00:24:00,21.3,20.3,30.36,East,89,0.0,-999.0,96,0.00,,,0.00,0,WeatherHawk,2013-01-05 08:24:00,
2013-01-05 00:29:00,21.6,21.1,30.36,East,89,0.0,0.0,98,0.00,,,0.00,0,WeatherHawk,2013-01-05 08:29:00,
2013-01-05 00:34:00,21.4,21.2,30.36,East,89,0.0,0.0,99,0.00,,,0.00,0,WeatherHawk,2013-01-05 08:34:00,
2013-01-05 00:39:00,22.1,22.1,30.36,East,89,0.0,0.0,100,0.00,,,0.00,0,WeatherHawk,2013-01-05 08:39:00,
2013-01-05 00:44:00,22.0,21.1,30.36,ENE,57,0.0,-999.0,96,0.00,,,0.00,0,WeatherHawk,2013-01-05 08:44:00,
2013-01-05 00:49:00,22.1,19.4,30.36,East,100,3.0,0.0,89,0.00,,,0.00,1,WeatherHawk,2013-01-05 08:49:00,
2013-01-05 00:54:00,21.6,16.7,30.35,ESE,103,5.0,-999.0,81,0.00,,,0.00,0,WeatherHawk,2013-01-05 08:54:00,
2013-01-05 00:59:00,20.7,15.6,30.35,East,95,4.0,0.0,80,0.00,,,0.00,0,WeatherHawk,2013-01-05 08:59:00,
2013-01-05 01:04:00,21.5,16.5,30.35,East,80,5.0,-999.0,81,0.00,,,0.00,1,WeatherHawk,2013-01-05 09:04:00,
2013-01-05 01:09:00,21.2,16.0,30.35,East,86,4.0,0.0,80,0.00,,,0.00,0,WeatherHawk,2013-01-05 09:09:00,
2013-01-05 01:14:00,21.4,16.2,30.35,East,89,5.0,-999.0,80,0.00,,,0.00,0,WeatherHawk,2013-01-05 09:14:00,
2013-01-05 01:19:00,20.6,15.1,30.35,ENE,77,2.0,0.0,79,0.00,,,0.00,0,WeatherHawk,2013-01-05 09:19:00,
2013-01-05 01:24:00,20.6,15.5,30.36,ENE,67,3.0,0.0,80,0.00,,,0.00,0,WeatherHawk,2013-01-05 09:24:00,
2013-01-05 01:29:00,20.1,14.9,30.36,East,88,3.0,0.0,80,0.00,,,0.00,0,WeatherHawk,2013-01-05 09:29:00,
2013-01-05 01:34:00,21.1,16.4,30.35,East,93,3.0,-999.0,82,0.00,,,0.00,0,WeatherHawk,2013-01-05 09:34:00,
2013-01-05 01:39:00,20.8,16.2,30.35,East,91,4.0,0.0,82,0.00,,,0.00,0,WeatherHawk,2013-01-05 09:39:00,
2013-01-05 01:44:00,20.2,15.6,30.36,East,92,5.0,0.0,82,0.00,,,0.00,0,WeatherHawk,2013-01-05 09:44:00,
2013-01-05 01:49:00,20.5,16.1,30.36,East,81,4.0,-999.0,83,0.00,,,0.00,0,WeatherHawk,2013-01-05 09:49:00,
2013-01-05 01:54:00,19.8,15.5,30.36,East,100,3.0,-999.0,83,0.00,,,0.00,0,WeatherHawk,2013-01-05 09:54:00,
2013-01-05 01:59:00,20.1,16.0,30.36,NE,52,0.0,0.0,84,0.00,,,0.00,0,WeatherHawk,2013-01-05 09:59:00,
2013-01-05 02:04:00,20.1,16.3,30.36,NE,53,3.0,0.0,85,0.00,,,0.00,0,WeatherHawk,2013-01-05 10:04:00,
2013-01-05 02:09:00,19.7,16.2,30.36,ENE,68,2.0,0.0,86,0.00,,,0.00,0,WeatherHawk,2013-01-05 10:09:00,
2013-01-05 02:14:00,20.2,17.0,30.37,ENE,72,0.0,-999.0,87,0.00,,,0.00,0,WeatherHawk,2013-01-05 10:14:00,
2013-01-05 02:19:00,19.8,16.9,30.37,NE,55,0.0,0.0,88,0.00,,,0.00,0,WeatherHawk,2013-01-05 10:19:00,
2013-01-05 02:24:00,19.8,17.3,30.36,NE,44,1.0,0.0,90,0.00,,,0.00,0,WeatherHawk,2013-01-05 10:24:00,
2013-01-05 02:29:00,19.8,17.4,30.36,NE,54,3.0,0.0,90,0.00,,,0.00,0,WeatherHawk,2013-01-05 10:29:00,
2013-01-05 02:34:00,20.0,17.8,30.37,ENE,64,2.0,0.0,91,0.00,,,0.00,0,WeatherHawk,2013-01-05 10:34:00,
2013-01-05 02:39:00,19.6,17.4,30.36,East,84,3.0,0.0,91,0.00,,,0.00,0,WeatherHawk,2013-01-05 10:39:00,
2013-01-05 02:44:00,19.6,17.4,30.37,East,99,3.0,0.0,91,0.00,,,0.00,1,WeatherHawk,2013-01-05 10:44:00,
2013-01-05 02:49:00,19.6,17.4,30.37,East,96,4.0,0.0,91,0.00,,,0.00,0,WeatherHawk,2013-01-05 10:49:00,
2013-01-05 02:54:00,18.5,16.0,30.37,ESE,107,5.0,-999.0,90,0.00,,,0.00,0,WeatherHawk,2013-01-05 10:54:00,
2013-01-05 02:59:00,18.9,16.5,30.36,East,97,6.0,0.0,90,0.00,,,0.00,0,WeatherHawk,2013-01-05 10:59:00,
2013-01-05 03:04:00,18.9,16.7,30.37,ESE,103,5.0,-999.0,91,0.00,,,0.00,0,WeatherHawk,2013-01-05 11:04:00,
2013-01-05 03:09:00,18.9,16.9,30.37,ESE,103,5.0,0.0,92,0.00,,,0.00,0,WeatherHawk,2013-01-05 11:09:00,
2013-01-05 03:14:00,19.0,17.0,30.37,East,99,4.0,-999.0,92,0.00,,,0.00,1,WeatherHawk,2013-01-05 11:14:00,
2013-01-05 03:19:00,18.7,16.8,30.37,SE,126,2.0,0.0,92,0.00,,,0.00,0,WeatherHawk,2013-01-05 11:19:00,
2013-01-05 03:24:00,18.3,16.4,30.37,ESE,107,2.0,-999.0,92,0.00,,,0.00,0,WeatherHawk,2013-01-05 11:24:00,
2013-01-05 03:29:00,18.7,16.7,30.36,ENE,67,0.0,0.0,92,0.00,,,0.00,0,WeatherHawk,2013-01-05 11:29:00,
2013-01-05 03:34:00,18.0,16.0,30.36,NE,37,0.0,-999.0,92,0.00,,,0.00,0,WeatherHawk,2013-01-05 11:34:00,
2013-01-05 03:39:00,18.9,17.4,30.36,East,82,1.0,0.0,94,0.00,,,0.00,1,WeatherHawk,2013-01-05 11:39:00,
2013-01-05 03:44:00,18.5,17.0,30.36,ENE,78,0.0,-999.0,94,0.00,,,0.00,1,WeatherHawk,2013-01-05 11:44:00,
2013-01-05 03:49:00,18.6,17.2,30.36,East,89,0.0,0.0,94,0.00,,,0.00,1,WeatherHawk,2013-01-05 11:49:00,
2013-01-05 03:54:00,18.8,17.1,30.37,ENE,77,1.0,0.0,93,0.00,,,0.00,0,WeatherHawk,2013-01-05 11:54:00,
2013-01-05 03:59:00,18.9,17.0,30.36,North,8,0.0,0.0,92,0.00,,,0.00,0,WeatherHawk,2013-01-05 11:59:00,
2013-01-05 04:04:00,18.8,16.6,30.36,ENE,70,2.0,-999.0,91,0.00,,,0.00,0,WeatherHawk,2013-01-05 12:04:00,
2013-01-05 04:09:00,18.8,16.4,30.36,ENE,58,0.0,0.0,90,0.00,,,0.00,0,WeatherHawk,2013-01-05 12:09:00,
2013-01-05 04:14:00,18.8,16.6,30.36,NNE,33,0.0,0.0,91,0.00,,,0.00,1,WeatherHawk,2013-01-05 12:14:00,
2013-01-05 04:19:00,18.8,16.9,30.36,NNE,22,0.0,0.0,92,0.00,,,0.00,0,WeatherHawk,2013-01-05 12:19:00,
2013-01-05 04:24:00,19.0,17.3,30.35,NNE,29,0.0,-999.0,93,0.00,,,0.00,0,WeatherHawk,2013-01-05 12:24:00,
2013-01-05 04:29:00,18.7,17.0,30.35,NNE,16,0.0,0.0,93,0.00,,,0.00,0,WeatherHawk,2013-01-05 12:29:00,
2013-01-05 04:34:00,18.8,17.6,30.35,ENE,74,1.0,0.0,95,0.00,,,0.00,0,WeatherHawk,2013-01-05 12:34:00,
2013-01-05 04:39:00,18.9,17.7,30.36,NE,52,0.0,0.0,95,0.00,,,0.00,0,WeatherHawk,2013-01-05 12:39:00,
2013-01-05 04:44:00,19.0,18.1,30.35,NE,52,0.0,0.0,96,0.00,,,0.00,1,WeatherHawk,2013-01-05 12:44:00,
2013-01-05 04:49:00,18.6,17.7,30.35,NE,52,0.0,0.0,96,0.00,,,0.00,0,WeatherHawk,2013-01-05 12:49:00,
2013-01-05 04:54:00,19.0,18.3,30.35,NE,52,0.0,0.0,97,0.00,,,0.00,0,WeatherHawk,2013-01-05 12:54:00,
2013-01-05 04:59:00,19.1,18.4,30.35,NE,52,0.0,0.0,97,0.00,,,0.00,0,WeatherHawk,2013-01-05 12:59:00,
2013-01-05 05:05:00,18.8,18.1,30.35,ESE,117,3.0,0.0,97,0.00,,,0.00,0,WeatherHawk,2013-01-05 13:05:00,
2013-01-05 05:10:00,18.9,17.7,30.35,ESE,106,0.0,0.0,95,0.00,,,0.00,0,WeatherHawk,2013-01-05 13:10:00,
2013-01-05 05:16:00,19.4,17.7,30.35,ESE,106,0.0,0.0,93,0.00,,,0.00,0,WeatherHawk,2013-01-05 13:16:00,
2013-01-05 05:21:00,18.9,16.7,30.34,ESE,103,2.0,0.0,91,0.00,,,0.00,0,WeatherHawk,2013-01-05 13:21:00,
2013-01-05 05:26:00,19.3,16.4,30.34,ENE,61,0.0,0.0,88,0.00,,,0.00,0,WeatherHawk,2013-01-05 13:26:00,
2013-01-05 05:32:00,18.9,15.7,30.35,ESE,107,1.0,0.0,87,0.00,,,0.00,0,WeatherHawk,2013-01-05 13:32:00,
2013-01-05 05:37:00,18.8,15.9,30.35,SSE,158,3.0,0.0,88,0.00,,,0.00,0,WeatherHawk,2013-01-05 13:37:00,
2013-01-05 05:42:00,18.7,16.0,30.34,SSE,151,2.0,0.0,89,0.00,,,0.00,0,WeatherHawk,2013-01-05 13:42:00,
2013-01-05 05:47:00,18.8,16.3,30.35,SE,133,0.0,0.0,90,0.00,,,0.00,0,WeatherHawk,2013-01-05 13:47:00,
2013-01-05 05:52:00,18.8,16.7,30.35,SSE,150,0.0,0.0,91,0.00,,,0.00,0,WeatherHawk,2013-01-05 13:52:00,
2013-01-05 05:57:00,18.8,16.9,30.35,ESE,118,0.0,0.0,92,0.00,,,0.00,0,WeatherHawk,2013-01-05 13:57:00,
2013-01-05 06:03:00,18.9,16.7,30.35,East,99,1.0,0.0,91,0.00,,,0.00,0,WeatherHawk,2013-01-05 14:03:00,
2013-01-05 06:08:00,18.9,16.4,30.36,SE,136,2.0,0.0,90,0.00,,,0.00,1,WeatherHawk,2013-01-05 14:08:00,
2013-01-05 06:13:00,18.8,16.1,30.35,ESE,106,0.0,0.0,89,0.00,,,0.00,0,WeatherHawk,2013-01-05 14:13:00,
2013-01-05 06:18:00,18.8,16.2,30.36,South,183,0.0,0.0,89,0.00,,,0.00,0,WeatherHawk,2013-01-05 14:18:00,
2013-01-05 06:23:00,18.9,16.5,30.35,ENE,62,0.0,0.0,90,0.00,,,0.00,0,WeatherHawk,2013-01-05 14:23:00,
2013-01-05 06:28:00,18.8,16.4,30.36,ESE,108,0.0,0.0,90,0.00,,,0.00,1,WeatherHawk,2013-01-05 14:28:00,
2013-01-05 06:33:00,18.9,16.7,30.36,East,100,0.0,0.0,91,0.00,,,0.00,0,WeatherHawk,2013-01-05 14:33:00,
2013-01-05 06:38:00,18.8,16.6,30.36,NE,44,3.0,0.0,91,0.00,,,0.00,0,WeatherHawk,2013-01-05 14:38:00,
2013-01-05 06:43:00,18.5,16.6,30.35,ENE,75,1.0,0.0,92,0.00,,,0.00,0,WeatherHawk,2013-01-05 14:43:00,
2013-01-05 06:48:00,18.6,16.9,30.35,ESE,119,0.0,0.0,93,0.00,,,0.00,0,WeatherHawk,2013-01-05 14:48:00,
2013-01-05 06:53:00,18.6,17.2,30.35,ESE,105,0.0,0.0,94,0.00,,,0.00,0,WeatherHawk,2013-01-05 14:53:00,
2013-01-05 06:58:00,18.8,17.4,30.36,SE,135,0.0,0.0,94,0.00,,,0.00,0,WeatherHawk,2013-01-05 14:58:00,
2013-01-05 07:03:00,18.7,17.2,30.35,SSE,150,0.0,0.0,94,0.00,,,0.00,0,WeatherHawk,2013-01-05 15:03:00,
2013-01-05 07:08:00,18.7,17.3,30.34,SSE,150,0.0,0.0,94,0.00,,,0.00,0,WeatherHawk,2013-01-05 15:08:00,
2013-01-05 07:13:00,18.7,17.2,30.35,SSE,150,0.0,0.0,94,0.00,,,0.00,0,WeatherHawk,2013-01-05 15:13:00,
2013-01-05 07:18:00,18.9,17.5,30.35,SSE,158,1.0,0.0,94,0.00,,,0.00,0,WeatherHawk,2013-01-05 15:18:00,
2013-01-05 07:24:00,18.9,17.5,30.35,SE,136,0.0,0.0,94,0.00,,,0.00,0,WeatherHawk,2013-01-05 15:24:00,
2013-01-05 07:29:00,19.0,17.5,30.35,SE,136,0.0,0.0,94,0.00,,,0.00,0,WeatherHawk,2013-01-05 15:29:00,
2013-01-05 07:34:00,19.0,17.6,30.35,SE,136,0.0,0.0,94,0.00,,,0.00,2,WeatherHawk,2013-01-05 15:34:00,
2013-01-05 07:39:00,19.1,17.9,30.35,ESE,112,0.0,0.0,95,0.00,,,0.00,3,WeatherHawk,2013-01-05 15:39:00,
2013-01-05 07:44:00,19.0,17.8,30.35,ESE,122,3.0,0.0,95,0.00,,,0.00,3,WeatherHawk,2013-01-05 15:44:00,
2013-01-05 07:49:00,19.1,17.9,30.35,ESE,114,2.0,0.0,95,0.00,,,0.00,3,WeatherHawk,2013-01-05 15:49:00,
2013-01-05 07:54:00,19.1,18.0,30.36,SE,128,4.0,0.0,95,0.00,,,0.00,6,WeatherHawk,2013-01-05 15:54:00,
2013-01-05 07:59:00,19.2,18.0,30.35,ESE,114,2.0,0.0,95,0.00,,,0.00,7,WeatherHawk,2013-01-05 15:59:00,
2013-01-05 08:04:00,19.2,18.0,30.35,ESE,117,3.0,0.0,95,0.00,,,0.00,9,WeatherHawk,2013-01-05 16:04:00,
2013-01-05 08:09:00,19.3,18.1,30.35,ESE,107,4.0,0.0,95,0.00,,,0.00,13,WeatherHawk,2013-01-05 16:09:00,
2013-01-05 08:14:00,19.5,18.0,30.35,SE,127,3.0,0.0,94,0.00,,,0.00,20,WeatherHawk,2013-01-05 16:14:00,
2013-01-05 08:19:00,19.4,17.8,30.35,ESE,118,4.0,0.0,93,0.00,,,0.00,29,WeatherHawk,2013-01-05 16:19:00,
2013-01-05 08:24:00,19.6,17.7,30.35,ESE,119,3.0,0.0,92,0.00,,,0.00,40,WeatherHawk,2013-01-05 16:24:00,
2013-01-05 08:30:00,19.7,17.5,30.35,SE,137,3.0,0.0,91,0.00,,,0.00,33,WeatherHawk,2013-01-05 16:30:00,
2013-01-05 08:35:00,20.0,17.5,30.35,East,99,1.0,0.0,90,0.00,,,0.00,33,WeatherHawk,2013-01-05 16:35:00,
2013-01-05 08:40:00,20.0,17.1,30.35,SSE,153,2.0,0.0,88,0.00,,,0.00,37,WeatherHawk,2013-01-05 16:40:00,
2013-01-05 08:45:00,19.8,16.9,30.35,ESE,120,2.0,0.0,88,0.00,,,0.00,40,WeatherHawk,2013-01-05 16:45:00,
2013-01-05 08:50:00,20.0,16.7,30.35,SE,130,3.0,0.0,87,0.00,,,0.00,49,WeatherHawk,2013-01-05 16:50:00,
2013-01-05 08:56:00,20.1,16.8,30.35,SE,131,3.0,0.0,87,0.00,,,0.00,59,WeatherHawk,2013-01-05 16:56:00,
2013-01-05 09:01:00,20.2,16.7,30.36,ESE,103,2.0,0.0,86,0.00,,,0.00,67,WeatherHawk,2013-01-05 17:01:00,
2013-01-05 09:06:00,20.3,16.6,30.35,SE,130,0.0,0.0,85,0.00,,,0.00,66,WeatherHawk,2013-01-05 17:06:00,
2013-01-05 09:11:00,20.8,16.5,30.35,East,100,0.0,0.0,83,0.00,,,0.00,56,WeatherHawk,2013-01-05 17:11:00,
2013-01-05 09:16:00,20.3,15.4,30.36,East,100,0.0,0.0,81,0.00,,,0.00,61,WeatherHawk,2013-01-05 17:16:00,
2013-01-05 09:21:00,20.9,16.0,30.36,ESE,113,1.0,0.0,81,0.00,,,0.00,68,WeatherHawk,2013-01-05 17:21:00,
2013-01-05 09:26:00,20.6,15.5,30.36,SSE,147,3.0,0.0,80,0.00,,,0.00,71,WeatherHawk,2013-01-05 17:26:00,
2013-01-05 09:31:00,21.0,15.8,30.35,SSE,152,0.0,0.0,80,0.00,,,0.00,70,WeatherHawk,2013-01-05 17:31:00,
2013-01-05 09:36:00,21.0,15.8,30.36,ESE,107,2.0,0.0,80,0.00,,,0.00,74,WeatherHawk,2013-01-05 17:36:00,
2013-01-05 09:41:00,20.7,15.2,30.35,East,92,2.0,0.0,79,0.00,,,0.00,71,WeatherHawk,2013-01-05 17:41:00,
2013-01-05 09:46:00,21.4,16.5,30.36,ENE,57,1.0,0.0,81,0.00,,,0.00,78,WeatherHawk,2013-01-05 17:46:00,
2013-01-05 09:51:00,21.8,16.3,30.36,ESE,102,0.0,0.0,79,0.00,,,0.00,86,WeatherHawk,2013-01-05 17:51:00,
2013-01-05 09:56:00,21.6,15.5,30.35,SSE,151,0.0,0.0,77,0.00,,,0.00,90,WeatherHawk,2013-01-05 17:56:00,
2013-01-05 10:01:00,23.3,16.2,30.35,SW,233,0.0,0.0,74,0.00,,,0.00,93,WeatherHawk,2013-01-05 18:01:00,
2013-01-05 10:06:00,21.8,13.5,30.35,WSW,248,0.0,0.0,70,0.00,,,0.00,100,WeatherHawk,2013-01-05 18:06:00,
2013-01-05 10:11:00,22.0,13.4,30.35,WSW,248,0.0,0.0,69,0.00,,,0.00,109,WeatherHawk,2013-01-05 18:11:00,
2013-01-05 10:16:00,21.3,12.4,30.35,NE,35,3.0,0.0,68,0.00,,,0.00,106,WeatherHawk,2013-01-05 18:16:00,
2013-01-05 10:21:00,22.0,13.8,30.35,NNE,24,0.0,0.0,70,0.00,,,0.00,107,WeatherHawk,2013-01-05 18:21:00,
2013-01-05 10:26:00,22.1,14.2,30.35,East,95,2.0,0.0,71,0.00,,,0.00,111,WeatherHawk,2013-01-05 18:26:00,
2013-01-05 10:31:00,22.0,13.5,30.35,East,80,0.0,0.0,69,0.00,,,0.00,99,WeatherHawk,2013-01-05 18:31:00,
2013-01-05 10:36:00,22.6,14.3,30.35,East,88,0.0,0.0,70,0.00,,,0.00,98,WeatherHawk,2013-01-05 18:36:00,
2013-01-05 10:41:00,21.9,13.3,30.35,East,98,4.0,0.0,69,0.00,,,0.00,91,WeatherHawk,2013-01-05 18:41:00,
2013-01-05 10:46:00,22.4,14.1,30.34,ESE,114,0.0,0.0,70,0.00,,,0.00,92,WeatherHawk,2013-01-05 18:46:00,
2013-01-05 10:51:00,22.2,13.9,30.34,ESE,119,0.0,0.0,70,0.00,,,0.00,110,WeatherHawk,2013-01-05 18:51:00,
2013-01-05 10:56:00,22.4,13.8,30.34,ENE,61,0.0,0.0,69,0.00,,,0.00,108,WeatherHawk,2013-01-05 18:56:00,
2013-01-05 11:01:00,22.1,13.2,30.33,ENE,71,3.0,0.0,68,0.00,,,0.00,104,WeatherHawk,2013-01-05 19:01:00,
2013-01-05 11:07:00,23.9,15.3,30.34,NNE,17,0.0,0.0,69,0.00,,,0.00,95,WeatherHawk,2013-01-05 19:07:00,
2013-01-05 11:12:00,22.1,13.5,30.34,ESE,115,2.0,0.0,69,0.00,,,0.00,96,WeatherHawk,2013-01-05 19:12:00,
2013-01-05 11:18:00,22.8,14.5,30.33,ESE,108,0.0,0.0,70,0.00,,,0.00,93,WeatherHawk,2013-01-05 19:18:00,
2013-01-05 11:23:00,22.6,14.0,30.33,NNE,19,0.0,0.0,69,0.00,,,0.00,77,WeatherHawk,2013-01-05 19:23:00,
2013-01-05 11:28:00,22.7,14.1,30.33,NNE,25,0.0,0.0,69,0.00,,,0.00,67,WeatherHawk,2013-01-05 19:28:00,
2013-01-05 11:33:00,25.8,16.4,30.33,NNE,25,0.0,0.0,67,0.00,,,0.00,85,WeatherHawk,2013-01-05 19:33:00,
2013-01-05 11:38:00,23.3,13.0,30.33,NNE,25,0.0,0.0,64,0.00,,,0.00,88,WeatherHawk,2013-01-05 19:38:00,
2013-01-05 11:43:00,22.7,13.1,30.33,NNE,20,0.0,0.0,66,0.00,,,0.00,76,WeatherHawk,2013-01-05 19:43:00,
2013-01-05 11:48:00,22.6,14.0,30.32,NNW,347,2.0,0.0,69,0.00,,,0.00,69,WeatherHawk,2013-01-05 19:48:00,
2013-01-05 11:54:00,22.6,14.3,30.32,NNW,330,2.0,0.0,70,0.00,,,0.00,73,WeatherHawk,2013-01-05 19:54:00,
2013-01-05 11:59:00,22.6,14.6,30.32,NW,323,3.0,0.0,71,0.00,,,0.00,76,WeatherHawk,2013-01-05 19:59:00,
2013-01-05 12:04:00,22.7,14.7,30.32,NW,323,0.0,0.0,71,0.00,,,0.00,77,WeatherHawk,2013-01-05 20:04:00,
2013-01-05 12:09:00,23.1,15.4,30.32,NW,323,0.0,0.0,72,0.00,,,0.00,78,WeatherHawk,2013-01-05 20:09:00,
2013-01-05 12:14:00,23.3,15.9,30.31,NW,322,0.0,0.0,73,0.00,,,0.00,81,WeatherHawk,2013-01-05 20:14:00,
2013-01-05 12:19:00,22.7,16.0,30.31,NW,322,1.0,0.0,75,0.00,,,0.00,78,WeatherHawk,2013-01-05 20:19:00,
2013-01-05 12:24:00,23.2,16.5,30.32,North,0,1.0,0.0,75,0.00,,,0.00,81,WeatherHawk,2013-01-05 20:24:00,
2013-01-05 12:29:00,23.0,16.6,30.31,North,6,1.0,0.0,76,0.00,,,0.00,77,WeatherHawk,2013-01-05 20:29:00,
2013-01-05 12:34:00,22.8,16.7,30.31,NNE,19,0.0,0.0,77,0.00,,,0.00,76,WeatherHawk,2013-01-05 20:34:00,
2013-01-05 12:39:00,22.9,16.8,30.31,NNE,23,2.0,0.0,77,0.00,,,0.00,73,WeatherHawk,2013-01-05 20:39:00,
2013-01-05 12:44:00,22.7,16.9,30.30,NE,51,2.0,-999.0,78,0.00,,,0.00,69,WeatherHawk,2013-01-05 20:44:00,
2013-01-05 12:50:00,23.2,17.9,30.30,East,80,3.0,0.0,80,0.00,,,0.00,63,WeatherHawk,2013-01-05 20:50:00,
2013-01-05 12:55:00,23.0,17.2,30.30,NE,48,3.0,0.0,78,0.00,,,0.00,58,WeatherHawk,2013-01-05 20:55:00,
2013-01-05 13:00:00,22.8,17.0,30.30,NE,34,3.0,0.0,78,0.00,,,0.00,55,WeatherHawk,2013-01-05 21:00:00,
2013-01-05 13:05:00,23.2,18.3,30.30,NNE,28,0.0,0.0,81,0.00,,,0.00,53,WeatherHawk,2013-01-05 21:05:00,
2013-01-05 13:10:00,23.1,18.2,30.30,NNE,28,2.0,-999.0,81,0.00,,,0.00,51,WeatherHawk,2013-01-05 21:10:00,
2013-01-05 13:15:00,23.3,18.4,30.29,NE,51,1.0,0.0,81,0.00,,,0.00,53,WeatherHawk,2013-01-05 21:15:00,
2013-01-05 13:21:00,23.1,18.4,30.29,NE,47,2.0,0.0,82,0.00,,,0.00,53,WeatherHawk,2013-01-05 21:21:00,
2013-01-05 13:27:00,23.2,18.5,30.28,NNE,33,3.0,0.0,82,0.00,,,0.00,54,WeatherHawk,2013-01-05 21:27:00,
2013-01-05 13:32:00,23.1,18.4,30.28,NE,50,3.0,0.0,82,0.00,,,0.00,56,WeatherHawk,2013-01-05 21:32:00,
2013-01-05 13:37:00,23.4,19.0,30.27,NE,55,2.0,0.0,83,0.00,,,0.00,52,WeatherHawk,2013-01-05 21:37:00,
2013-01-05 13:42:00,23.1,19.0,30.27,ENE,64,4.0,0.0,84,0.00,,,0.00,56,WeatherHawk,2013-01-05 21:42:00,
2013-01-05 13:48:00,23.2,19.4,30.27,NE,50,3.0,0.0,85,0.00,,,0.00,56,WeatherHawk,2013-01-05 21:48:00,
2013-01-05 13:53:00,23.5,19.7,30.28,NNE,15,0.0,0.0,85,0.00,,,0.00,54,WeatherHawk,2013-01-05 21:53:00,
2013-01-05 13:58:00,23.0,18.9,30.28,North,351,3.0,0.0,84,0.00,,,0.00,49,WeatherHawk,2013-01-05 21:58:00,
2013-01-05 14:03:00,23.1,19.3,30.28,North,351,0.0,0.0,85,0.00,,,0.00,48,WeatherHawk,2013-01-05 22:03:00,
2013-01-05 14:09:00,23.2,19.6,30.28,NW,323,0.0,0.0,86,0.00,,,0.00,49,WeatherHawk,2013-01-05 22:09:00,
2013-01-05 14:14:00,23.5,19.6,30.28,NW,323,0.0,0.0,85,0.00,,,0.00,49,WeatherHawk,2013-01-05 22:14:00,
2013-01-05 14:19:00,23.4,19.9,30.28,NW,323,0.0,0.0,86,0.00,,,0.00,50,WeatherHawk,2013-01-05 22:19:00,
2013-01-05 14:24:00,24.9,21.6,30.28,NW,312,0.0,0.0,87,0.00,,,0.00,46,WeatherHawk,2013-01-05 22:24:00,
2013-01-05 14:29:00,25.5,21.4,30.28,NW,312,0.0,0.0,84,0.00,,,0.00,43,WeatherHawk,2013-01-05 22:29:00,
2013-01-05 14:34:00,24.0,19.0,30.28,NW,312,0.0,0.0,81,0.00,,,0.00,39,WeatherHawk,2013-01-05 22:34:00,
2013-01-05 14:39:00,24.8,19.8,30.27,NW,312,0.0,0.0,81,0.00,,,0.00,41,WeatherHawk,2013-01-05 22:39:00,
2013-01-05 14:44:00,23.8,17.9,30.28,NW,312,0.0,0.0,78,0.00,,,0.00,37,WeatherHawk,2013-01-05 22:44:00,
2013-01-05 14:49:00,23.7,19.1,30.27,NE,43,1.0,0.0,82,0.00,,,0.00,41,WeatherHawk,2013-01-05 22:49:00,
2013-01-05 14:54:00,23.9,19.5,30.26,NNE,28,1.0,0.0,83,0.00,,,0.00,39,WeatherHawk,2013-01-05 22:54:00,
2013-01-05 14:59:00,23.9,19.5,30.27,NNE,30,2.0,0.0,83,0.00,,,0.00,39,WeatherHawk,2013-01-05 22:59:00,
2013-01-05 15:04:00,23.9,19.5,30.27,NNE,17,0.0,0.0,83,0.00,,,0.00,37,WeatherHawk,2013-01-05 23:04:00,
2013-01-05 15:09:00,24.4,20.3,30.27,North,351,0.0,0.0,84,0.00,,,0.00,39,WeatherHawk,2013-01-05 23:09:00,
2013-01-05 15:14:00,24.0,19.3,30.27,North,349,0.0,0.0,82,0.00,,,0.00,37,WeatherHawk,2013-01-05 23:14:00,
2013-01-05 15:19:00,24.7,20.0,30.27,North,349,0.0,0.0,82,0.00,,,0.00,37,WeatherHawk,2013-01-05 23:19:00,
2013-01-05 15:24:00,25.8,20.5,30.27,North,349,0.0,0.0,80,0.00,,,0.00,37,WeatherHawk,2013-01-05 23:24:00,
2013-01-05 15:29:00,24.6,18.7,30.27,North,349,0.0,0.0,78,0.00,,,0.00,41,WeatherHawk,2013-01-05 23:29:00,
2013-01-05 15:34:00,24.5,18.7,30.27,North,349,0.0,0.0,78,0.00,,,0.00,42,WeatherHawk,2013-01-05 23:34:00,
2013-01-05 15:39:00,24.6,18.8,30.27,North,349,0.0,0.0,78,0.00,,,0.00,35,WeatherHawk,2013-01-05 23:39:00,
2013-01-05 15:44:00,24.4,19.4,30.27,NNE,18,0.0,0.0,81,0.00,,,0.00,22,WeatherHawk,2013-01-05 23:44:00,
2013-01-05 15:49:00,24.2,20.1,30.27,NE,41,0.0,0.0,84,0.00,,,0.00,17,WeatherHawk,2013-01-05 23:49:00,
2013-01-05 15:54:00,24.1,20.2,30.27,SE,142,3.0,0.0,85,0.00,,,0.00,20,WeatherHawk,2013-01-05 23:54:00,
2013-01-05 15:59:00,23.6,20.1,30.27,East,81,4.0,0.0,86,0.00,,,0.00,17,WeatherHawk,2013-01-05 23:59:00,
2013-01-05 16:04:00,23.4,20.2,30.27,East,99,4.0,0.0,87,0.00,,,0.00,15,WeatherHawk,2013-01-06 00:04:00,
2013-01-05 16:09:00,23.6,20.6,30.27,East,99,3.0,0.0,88,0.00,,,0.00,13,WeatherHawk,2013-01-06 00:09:00,
2013-01-05 16:14:00,23.2,20.4,30.27,East,90,4.0,0.0,89,0.00,,,0.00,8,WeatherHawk,2013-01-06 00:14:00,
2013-01-05 16:19:00,23.2,20.7,30.28,East,91,4.0,0.0,90,0.00,,,0.00,5,WeatherHawk,2013-01-06 00:19:00,
2013-01-05 16:24:00,23.3,21.0,30.28,East,81,3.0,0.0,91,0.00,,,0.00,3,WeatherHawk,2013-01-06 00:24:00,
2013-01-05 16:29:00,23.2,21.0,30.28,ENE,74,2.0,0.0,91,0.00,,,0.00,2,WeatherHawk,2013-01-06 00:29:00,
2013-01-05 16:34:00,23.3,21.1,30.28,East,81,2.0,0.0,91,0.00,,,0.00,3,WeatherHawk,2013-01-06 00:34:00,
2013-01-05 16:39:00,23.2,21.0,30.28,ENE,67,4.0,0.0,91,0.00,,,0.00,0,WeatherHawk,2013-01-06 00:39:00,
2013-01-05 16:44:00,23.4,21.4,30.27,ENE,73,3.0,0.0,92,0.00,,,0.00,0,WeatherHawk,2013-01-06 00:44:00,
2013-01-05 16:49:00,23.2,21.2,30.28,NE,56,4.0,-999.0,92,0.00,,,0.00,0,WeatherHawk,2013-01-06 00:49:00,
2013-01-05 16:54:00,23.2,21.2,30.27,East,85,3.0,0.0,92,0.00,,,0.00,0,WeatherHawk,2013-01-06 00:54:00,
2013-01-05 16:59:00,23.1,21.4,30.28,ENE,78,3.0,0.0,93,0.00,,,0.00,1,WeatherHawk,2013-01-06 00:59:00,
2013-01-05 17:04:00,23.1,21.4,30.27,ENE,57,2.0,0.0,93,0.00,,,0.00,0,WeatherHawk,2013-01-06 01:04:00,
2013-01-05 17:09:00,23.0,21.3,30.28,East,80,3.0,0.0,93,0.00,,,0.00,0,WeatherHawk,2013-01-06 01:09:00,
2013-01-05 17:14:00,23.1,21.4,30.28,ESE,109,2.0,0.0,93,0.00,,,0.00,0,WeatherHawk,2013-01-06 01:14:00,
2013-01-05 17:19:00,23.0,21.3,30.28,East,80,0.0,0.0,93,0.00,,,0.00,0,WeatherHawk,2013-01-06 01:19:00,
2013-01-05 17:24:00,22.9,20.9,30.27,East,93,0.0,-999.0,92,0.00,,,0.00,0,WeatherHawk,2013-01-06 01:24:00,
2013-01-05 17:29:00,23.0,21.0,30.28,SSE,154,0.0,0.0,92,0.00,,,0.00,1,WeatherHawk,2013-01-06 01:29:00,
2013-01-05 17:34:00,22.8,20.9,30.28,NE,52,0.0,0.0,92,0.00,,,0.00,1,WeatherHawk,2013-01-06 01:34:00,
2013-01-05 17:39:00,22.8,21.1,30.28,NE,42,0.0,0.0,93,0.00,,,0.00,0,WeatherHawk,2013-01-06 01:39:00,
2013-01-05 17:44:00,22.8,21.1,30.28,NE,42,0.0,0.0,93,0.00,,,0.00,0,WeatherHawk,2013-01-06 01:44:00,
2013-01-05 17:49:00,22.9,21.2,30.28,NE,42,0.0,-999.0,93,0.00,,,0.00,0,WeatherHawk,2013-01-06 01:49:00,
2013-01-05 17:54:00,22.9,21.2,30.28,NE,42,0.0,0.0,93,0.00,,,0.00,0,WeatherHawk,2013-01-06 01:54:00,
2013-01-05 17:59:00,22.9,21.2,30.28,NE,42,0.0,-999.0,93,0.00,,,0.00,0,WeatherHawk,2013-01-06 01:59:00,
2013-01-05 18:04:00,22.8,21.1,30.28,NE,42,0.0,0.0,93,0.00,,,0.00,0,WeatherHawk,2013-01-06 02:04:00,
2013-01-05 18:09:00,22.9,21.1,30.28,NE,42,0.0,0.0,93,0.00,,,0.00,0,WeatherHawk,2013-01-06 02:09:00,
2013-01-05 18:14:00,22.9,21.2,30.28,NE,42,0.0,0.0,93,0.00,,,0.00,0,WeatherHawk,2013-01-06 02:14:00,
2013-01-05 18:19:00,23.0,21.2,30.28,NE,55,0.0,0.0,93,0.00,,,0.00,0,WeatherHawk,2013-01-06 02:19:00,
2013-01-05 18:24:00,23.0,21.3,30.28,NE,55,0.0,0.0,93,0.00,,,0.00,0,WeatherHawk,2013-01-06 02:24:00,
2013-01-05 18:29:00,23.0,21.3,30.28,NE,55,0.0,-999.0,93,0.00,,,0.00,1,WeatherHawk,2013-01-06 02:29:00,
2013-01-05 18:34:00,23.0,21.1,30.28,NE,55,0.0,-999.0,92,0.00,,,0.00,0,WeatherHawk,2013-01-06 02:34:00,
2013-01-05 18:39:00,23.1,21.2,30.28,NE,55,0.0,0.0,92,0.00,,,0.00,0,WeatherHawk,2013-01-06 02:39:00,
2013-01-05 18:44:00,23.1,21.1,30.27,NE,55,0.0,0.0,92,0.00,,,0.00,0,WeatherHawk,2013-01-06 02:44:00,
2013-01-05 18:49:00,23.2,21.2,30.28,ESE,113,2.0,0.0,92,0.00,,,0.00,1,WeatherHawk,2013-01-06 02:49:00,
2013-01-05 18:54:00,23.2,21.0,30.27,East,101,1.0,0.0,91,0.00,,,0.00,0,WeatherHawk,2013-01-06 02:54:00,
2013-01-05 18:59:00,23.3,21.3,30.27,East,101,0.0,-999.0,92,0.00,,,0.00,0,WeatherHawk,2013-01-06 02:59:00,
2013-01-05 19:04:00,23.2,21.3,30.27,East,101,0.0,0.0,92,0.00,,,0.00,0,WeatherHawk,2013-01-06 03:04:00,
2013-01-05 19:09:00,23.3,21.3,30.27,East,101,0.0,0.0,92,0.00,,,0.00,1,WeatherHawk,2013-01-06 03:09:00,
2013-01-05 19:14:00,23.3,21.4,30.28,East,91,1.0,0.0,92,0.00,,,0.00,0,WeatherHawk,2013-01-06 03:14:00,
2013-01-05 19:20:00,23.2,21.2,30.27,ENE,68,0.0,0.0,92,0.00,,,0.00,0,WeatherHawk,2013-01-06 03:20:00,
2013-01-05 19:26:00,23.3,21.6,30.28,ENE,68,0.0,0.0,93,0.00,,,0.00,0,WeatherHawk,2013-01-06 03:26:00,
2013-01-05 19:31:00,23.3,21.3,30.27,ENE,68,0.0,0.0,92,0.00,,,0.00,0,WeatherHawk,2013-01-06 03:31:00,
2013-01-05 19:36:00,23.4,21.7,30.27,ENE,68,0.0,0.0,93,0.00,,,0.00,0,WeatherHawk,2013-01-06 03:36:00,
2013-01-05 19:42:00,23.3,21.4,30.27,ENE,68,0.0,0.0,92,0.00,,,0.00,0,WeatherHawk,2013-01-06 03:42:00,
2013-01-05 19:47:00,23.3,21.4,30.28,ENE,68,0.0,0.0,92,0.00,,,0.00,0,WeatherHawk,2013-01-06 03:47:00,
2013-01-05 19:52:00,23.4,21.4,30.27,ENE,68,0.0,0.0,92,0.00,,,0.00,0,WeatherHawk,2013-01-06 03:52:00,
2013-01-05 19:57:00,23.3,21.4,30.27,ENE,68,0.0,0.0,92,0.00,,,0.00,0,WeatherHawk,2013-01-06 03:57:00,
2013-01-05 20:02:00,23.4,21.4,30.27,ENE,68,0.0,0.0,92,0.00,,,0.00,0,WeatherHawk,2013-01-06 04:02:00,
2013-01-05 20:07:00,23.5,21.5,30.27,ESE,109,0.0,0.0,92,0.00,,,0.00,0,WeatherHawk,2013-01-06 04:07:00,
2013-01-05 20:12:00,23.5,21.5,30.27,ESE,109,2.0,0.0,92,0.00,,,0.00,0,WeatherHawk,2013-01-06 04:12:00,
2013-01-05 20:17:00,23.4,21.4,30.27,ESE,109,4.0,0.0,92,0.00,,,0.00,0,WeatherHawk,2013-01-06 04:17:00,
2013-01-05 20:22:00,23.4,21.2,30.27,ESE,110,0.0,0.0,91,0.00,,,0.00,0,WeatherHawk,2013-01-06 04:22:00,
2013-01-05 20:27:00,23.4,21.2,30.26,ESE,110,0.0,0.0,91,0.00,,,0.00,0,WeatherHawk,2013-01-06 04:27:00,
2013-01-05 20:32:00,23.3,21.3,30.26,ESE,112,4.0,0.0,92,0.00,,,0.00,0,WeatherHawk,2013-01-06 04:32:00,
2013-01-05 20:37:00,23.2,21.3,30.26,SE,124,3.0,0.0,92,0.00,,,0.00,0,WeatherHawk,2013-01-06 04:37:00,
2013-01-05 20:42:00,23.2,21.5,30.26,SSE,165,1.0,0.0,93,0.00,,,0.00,0,WeatherHawk,2013-01-06 04:42:00,
2013-01-05 20:47:00,23.3,21.6,30.26,SE,141,0.0,0.0,93,0.00,,,0.00,0,WeatherHawk,2013-01-06 04:47:00,
2013-01-05 20:52:00,23.1,21.4,30.26,SE,141,0.0,0.0,93,0.00,,,0.00,0,WeatherHawk,2013-01-06 04:52:00,
2013-01-05 20:57:00,23.2,21.5,30.26,ESE,113,3.0,0.0,93,0.00,,,0.00,1,WeatherHawk,2013-01-06 04:57:00,
2013-01-05 21:00:00,23.2,21.5,30.26,ESE,113,0.0,0.0,93,0.00,,,0.00,0,WeatherHawk,2013-01-06 05:00:00,
2013-01-05 21:03:00,23.1,21.4,30.27,ESE,113,0.0,0.0,93,0.00,,,0.00,0,WeatherHawk,2013-01-06 05:03:00,
2013-01-05 21:05:00,23.0,21.3,30.27,ESE,113,0.0,0.0,93,0.00,,,0.00,1,WeatherHawk,2013-01-06 05:05:00,
2013-01-05 21:08:00,23.0,21.6,30.27,SW,220,0.0,0.0,94,0.00,,,0.00,0,WeatherHawk,2013-01-06 05:08:00,
2013-01-05 21:14:00,23.1,21.6,30.27,SW,234,0.0,0.0,94,0.00,,,0.00,0,WeatherHawk,2013-01-06 05:14:00,
2013-01-05 21:19:00,23.0,21.5,30.26,SSE,150,0.0,0.0,94,0.00,,,0.00,0,WeatherHawk,2013-01-06 05:19:00,
2013-01-05 21:24:00,22.9,21.9,30.26,ESE,110,2.0,0.0,96,0.00,,,0.00,0,WeatherHawk,2013-01-06 05:24:00,
2013-01-05 21:29:00,23.0,22.0,30.26,ESE,105,3.0,0.0,96,0.00,,,0.00,0,WeatherHawk,2013-01-06 05:29:00,
2013-01-05 21:34:00,22.6,21.4,30.26,East,97,3.0,0.0,95,0.00,,,0.00,0,WeatherHawk,2013-01-06 05:34:00,
2013-01-05 21:39:00,22.4,21.2,30.26,ESE,111,3.0,0.0,95,0.00,,,0.00,0,WeatherHawk,2013-01-06 05:39:00,
2013-01-05 21:44:00,22.8,22.1,30.26,ESE,111,4.0,0.0,97,0.00,,,0.00,0,WeatherHawk,2013-01-06 05:44:00,
2013-01-05 21:49:00,22.9,22.4,30.26,ESE,115,5.0,0.0,98,0.00,,,0.00,0,WeatherHawk,2013-01-06 05:49:00,
2013-01-05 21:54:00,22.8,22.3,30.26,ESE,111,3.0,0.0,98,0.00,,,0.00,0,WeatherHawk,2013-01-06 05:54:00,
2013-01-05 21:59:00,21.9,21.7,30.26,ESE,109,0.0,0.0,99,0.00,,,0.00,1,WeatherHawk,2013-01-06 05:59:00,
2013-01-05 22:04:00,21.7,21.4,30.26,SSW,208,0.0,0.0,99,0.00,,,0.00,0,WeatherHawk,2013-01-06 06:04:00,
2013-01-05 22:09:00,22.3,22.3,30.27,SW,225,1.0,0.0,100,0.00,,,0.00,0,WeatherHawk,2013-01-06 06:09:00,
2013-01-05 22:14:00,22.0,22.0,30.27,SSW,210,0.0,0.0,100,0.00,,,0.00,0,WeatherHawk,2013-01-06 06:14:00,
2013-01-05 22:19:00,22.5,22.5,30.27,WSW,237,0.0,0.0,100,0.00,,,0.00,1,WeatherHawk,2013-01-06 06:19:00,
2013-01-05 22:24:00,22.3,22.3,30.27,SSE,155,0.0,0.0,100,0.00,,,0.00,0,WeatherHawk,2013-01-06 06:24:00,
2013-01-05 22:29:00,22.5,22.5,30.27,SSE,155,0.0,-999.0,100,0.00,,,0.00,0,WeatherHawk,2013-01-06 06:29:00,
2013-01-05 22:34:00,22.5,22.5,30.27,SSE,155,0.0,0.0,100,0.00,,,0.00,0,WeatherHawk,2013-01-06 06:34:00,
2013-01-05 22:39:00,22.5,22.5,30.27,SSE,155,3.0,0.0,100,0.00,,,0.00,1,WeatherHawk,2013-01-06 06:39:00,
2013-01-05 22:44:00,22.4,22.4,30.27,SSE,155,2.0,0.0,100,0.00,,,0.00,0,WeatherHawk,2013-01-06 06:44:00,
2013-01-05 22:49:00,22.4,22.4,30.27,SSE,155,0.0,0.0,100,0.00,,,0.00,1,WeatherHawk,2013-01-06 06:49:00,
2013-01-05 22:54:00,22.9,22.9,30.26,SSE,155,0.0,-999.0,100,0.00,,,0.00,0,WeatherHawk,2013-01-06 06:54:00,
2013-01-05 22:59:00,23.3,23.3,30.26,SSE,150,0.0,0.0,100,0.00,,,0.00,0,WeatherHawk,2013-01-06 06:59:00,
2013-01-05 23:04:00,22.8,22.8,30.26,SE,127,1.0,0.0,100,0.00,,,0.00,0,WeatherHawk,2013-01-06 07:04:00,
2013-01-05 23:09:00,22.7,22.7,30.26,ESE,105,4.0,0.0,100,0.00,,,0.00,1,WeatherHawk,2013-01-06 07:09:00,
2013-01-05 23:14:00,21.9,21.9,30.26,ESE,104,4.0,0.0,100,0.00,,,0.00,0,WeatherHawk,2013-01-06 07:14:00,
2013-01-05 23:19:00,22.3,22.3,30.26,East,85,2.0,0.0,100,0.00,,,0.00,0,WeatherHawk,2013-01-06 07:19:00,
2013-01-05 23:24:00,22.9,22.9,30.26,NE,50,0.0,0.0,100,0.00,,,0.00,0,WeatherHawk,2013-01-06 07:24:00,
2013-01-05 23:29:00,23.3,23.3,30.26,East,99,3.0,-999.0,100,0.00,,,0.00,0,WeatherHawk,2013-01-06 07:29:00,
2013-01-05 23:34:00,22.5,22.5,30.25,East,101,3.0,0.0,100,0.00,,,0.00,1,WeatherHawk,2013-01-06 07:34:00,
2013-01-05 23:39:00,22.5,22.5,30.26,East,95,2.0,0.0,100,0.00,,,0.00,0,WeatherHawk,2013-01-06 07:39:00,
2013-01-05 23:44:00,22.8,22.6,30.25,ENE,71,1.0,-999.0,99,0.00,,,0.00,0,WeatherHawk,2013-01-06 07:44:00,
2013-01-05 23:49:00,22.8,22.5,30.24,ENE,75,1.0,0.0,99,0.00,,,0.00,0,WeatherHawk,2013-01-06 07:49:00,
2013-01-05 23:54:00,22.3,22.1,30.24,ESE,115,2.0,0.0,99,0.00,,,0.00,0,WeatherHawk,2013-01-06 07:54:00,
2013-01-05 23:59:00,22.1,21.7,30.24,ESE,117,2.0,0.0,98,0.00,,,0.00,0,WeatherHawk,2013-01-06 07:59:00,